Greenhill, United Kingdom
Current Conditions -  °F | °C
As of 9:50 PM on Saturday 20 Dec 2014 (Local Time) from EGWU Reporting Station
Clear Clear  
Wind Chill: 39°   Ceiling: Unl
Heat Index: 39°   Visibility: 6mi
Dew Point: 36°   Wind: 3mph
Humidity: 87%   Direction: 300°WNW
Pressure: 30.42"   Gusts: NA
Location:  51.58°N, 0.34°W
Report Text: EGWU 202150Z AUTO 30003KT 9999 // NCD 04/02 Q1030
Loading
Personal Weather Stations






























Interactive Weather Map New forecast layout! Learn more

10-Day Weather Forecast

Advertisements
Track Severe Weather on mobile